Time;durP1;ratioP1;P1;durP2;ratioP2;P2;SDS_P1;SDS_P2;PMS_P1;PMS_P2;Temp;Humidity;BMP_temperature;BMP_pressure;BME280_temperature;BME280_humidity;BME280_pressure;Samples;Min_cycle;Max_cycle;Signal;HPM_P1;HPM_P2
2023/12/02 00:01:39;;;;;;;20.83;9.55;;;;;;;8.15;41.38;100705.41;5057614;28;20037;-61
2023/12/02 00:04:04;;;;;;;24.02;9.57;;;;;;;8.15;41.29;100708.91;5040694;28;20507;-61
2023/12/02 00:06:29;;;;;;;23.52;9.98;;;;;;;8.15;41.81;100702.75;5057362;28;20040;-61
2023/12/02 00:08:55;;;;;;;16.50;9.25;;;;;;;8.15;41.64;100702.75;5057492;28;20127;-62
2023/12/02 00:11:20;;;;;;;19.40;9.40;;;;;;;8.18;41.64;100710.50;5075189;28;20393;-61
2023/12/02 00:13:47;;;;;;;24.75;10.43;;;;;;;8.17;41.04;100708.81;5057267;28;20127;-61
2023/12/02 00:16:12;;;;;;;21.75;9.27;;;;;;;8.14;41.01;100703.72;5057196;28;20036;-61
2023/12/02 00:18:37;;;;;;;21.13;10.02;;;;;;;8.14;41.79;100709.03;5057014;28;20048;-61
2023/12/02 00:21:03;;;;;;;21.98;9.85;;;;;;;8.13;41.40;100704.66;5075073;28;20032;-61
2023/12/02 00:23:28;;;;;;;24.02;10.57;;;;;;;8.13;41.13;100702.00;5075104;28;20086;-61
2023/12/02 00:25:54;;;;;;;23.42;9.88;;;;;;;8.11;41.41;100704.78;5040703;28;20040;-61
2023/12/02 00:28:20;;;;;;;19.02;10.20;;;;;;;8.09;41.07;100711.22;5075012;28;20040;-62
2023/12/02 00:30:45;;;;;;;21.98;9.80;;;;;;;8.10;41.31;100718.22;5074796;28;20480;-61
2023/12/02 00:33:11;;;;;;;22.77;10.88;;;;;;;8.08;41.09;100714.84;5039220;28;20044;-62
2023/12/02 00:35:36;;;;;;;24.58;10.48;;;;;;;8.08;41.63;100721.03;5056953;28;20048;-61
2023/12/02 00:38:02;;;;;;;23.48;10.05;;;;;;;8.07;41.74;100713.13;5057154;28;20153;-61
2023/12/02 00:40:27;;;;;;;21.55;9.20;;;;;;;8.07;41.25;100713.13;5074531;28;20127;-61
2023/12/02 00:42:52;;;;;;;21.50;9.82;;;;;;;8.10;41.93;100723.56;5056846;28;20560;-61
2023/12/02 00:45:18;;;;;;;20.00;8.82;;;;;;;8.10;41.34;100724.41;5053202;28;20037;-61
2023/12/02 00:47:43;;;;;;;18.38;8.02;;;;;;;8.10;41.18;100723.56;5069567;28;20043;-61
2023/12/02 00:50:08;;;;;;;17.00;8.40;;;;;;;8.07;41.88;100713.13;5056647;28;20086;-61
2023/12/02 00:52:34;;;;;;;20.30;8.27;;;;;;;8.06;41.87;100716.78;5073562;28;20559;-62
2023/12/02 00:55:00;;;;;;;17.27;8.85;;;;;;;8.05;41.60;100723.91;5056626;28;20041;-62
2023/12/02 00:57:25;;;;;;;20.33;8.35;;;;;;;8.02;41.06;100715.28;5074021;28;20151;-62
2023/12/02 00:59:51;;;;;;;14.90;7.70;;;;;;;8.02;41.26;100723.28;5074475;28;20040;-62
2023/12/02 01:02:16;;;;;;;16.33;8.40;;;;;;;7.99;42.01;100723.53;5056519;28;20036;-61
2023/12/02 01:04:42;;;;;;;20.23;9.10;;;;;;;7.99;41.61;100720.84;5074229;28;20109;-61
2023/12/02 01:07:07;;;;;;;16.05;7.97;;;;;;;7.98;41.01;100724.50;5039844;28;20039;-61
2023/12/02 01:09:32;;;;;;;22.40;8.85;;;;;;;7.96;40.73;100718.41;5039596;28;20506;-62
2023/12/02 01:11:58;;;;;;;17.17;8.02;;;;;;;7.96;41.55;100721.09;5039582;28;20033;-61
2023/12/02 01:14:25;;;;;;;20.42;9.15;;;;;;;7.95;41.22;100719.41;5056012;28;20043;-61
2023/12/02 01:16:51;;;;;;;29.80;8.88;;;;;;;7.96;40.90;100721.09;5056475;28;20043;-61
2023/12/02 01:19:16;;;;;;;18.77;8.68;;;;;;;7.96;41.50;100721.09;5056160;28;20032;-61
2023/12/02 01:21:41;;;;;;;17.55;9.13;;;;;;;7.95;41.46;100720.25;5055982;28;20117;-61
2023/12/02 01:24:07;;;;;;;15.32;7.30;;;;;;;7.95;41.34;100730.06;5033544;28;20044;-62
2023/12/02 01:26:32;;;;;;;14.40;7.72;;;;;;;7.93;41.39;100726.66;5052671;28;20044;-61
2023/12/02 01:28:58;;;;;;;19.20;7.65;;;;;;;7.91;41.58;100718.78;5039086;28;20505;-61
2023/12/02 01:31:23;;;;;;;15.95;8.00;;;;;;;7.89;40.83;100725.19;5055897;28;20033;-61
2023/12/02 01:33:49;;;;;;;16.42;8.35;;;;;;;7.90;41.09;100726.91;5055916;28;20567;-61
2023/12/02 01:36:14;;;;;;;20.25;8.82;;;;;;;7.91;40.77;100736.59;5039320;28;20040;-61
2023/12/02 01:38:39;;;;;;;16.83;7.78;;;;;;;7.92;40.85;100731.16;5055655;28;20116;-62
2023/12/02 01:41:05;;;;;;;19.17;8.38;;;;;;;7.92;41.31;100740.97;5055629;28;20037;-61
2023/12/02 01:43:30;;;;;;;19.20;8.85;;;;;;;7.94;41.69;100745.22;5038608;28;20043;-61
2023/12/02 01:45:56;;;;;;;19.52;8.90;;;;;;;7.94;41.84;100741.69;5073507;28;20120;-61
2023/12/02 01:48:26;;;;;;;20.75;9.43;;;;;;;7.93;41.72;100737.31;5055519;28;20119;-61
2023/12/02 01:50:52;;;;;;;19.33;8.30;;;;;;;7.95;41.72;100746.94;5055704;28;20086;-61
2023/12/02 01:53:17;;;;;;;20.00;8.35;;;;;;;7.96;41.47;100753.94;5038887;28;20504;-61
2023/12/02 01:55:44;;;;;;;18.25;8.25;;;;;;;7.98;41.35;100753.84;5038799;28;20036;-61
2023/12/02 01:58:10;;;;;;;15.65;7.40;;;;;;;7.99;41.67;100758.19;5055309;28;20116;-61
2023/12/02 02:00:35;;;;;;;19.58;9.18;;;;;;;8.01;42.12;100761.63;5073379;28;20120;-61
2023/12/02 02:03:01;;;;;;;17.25;8.27;;;;;;;8.01;41.25;100761.63;5055450;28;20484;-61
2023/12/02 02:05:26;;;;;;;18.40;7.95;;;;;;;7.99;41.77;100766.19;5055340;28;20509;-61
2023/12/02 02:07:52;;;;;;;22.92;8.63;;;;;;;7.98;41.37;100767.19;5038882;28;20044;-61
2023/12/02 02:10:22;;;;;;;16.90;8.27;;;;;;;7.95;41.09;100762.06;5055839;28;20056;-62
2023/12/02 02:12:48;;;;;;;23.65;9.32;;;;;;;7.92;41.08;100757.81;5056022;28;20116;-61
2023/12/02 02:15:13;;;;;;;19.17;9.05;;;;;;;7.96;41.81;100769.09;5039817;28;20047;-61
2023/12/02 02:17:39;;;;;;;20.73;8.43;;;;;;;7.97;42.06;100766.31;5056252;28;20512;-61
2023/12/02 02:20:05;;;;;;;24.05;8.60;;;;;;;7.96;41.76;100780.59;5057162;28;20393;-61
2023/12/02 02:22:30;;;;;;;23.48;9.38;;;;;;;7.96;41.38;100772.59;5057757;28;20037;-61
2023/12/02 02:24:56;;;;;;;20.20;8.88;;;;;;;7.96;41.94;100766.41;5057216;28;20443;-62
2023/12/02 02:27:21;;;;;;;23.60;7.63;;;;;;;7.97;41.16;100770.81;5055865;28;20046;-61
2023/12/02 02:29:47;;;;;;;18.05;8.10;;;;;;;7.94;41.79;100769.22;5056407;28;20041;-61
2023/12/02 02:32:13;;;;;;;20.25;8.32;;;;;;;7.97;42.10;100768.13;5057195;28;20123;-61
2023/12/02 02:34:41;;;;;;;17.25;8.20;;;;;;;7.94;41.33;100760.34;5039913;28;20036;-62
2023/12/02 02:37:07;;;;;;;20.65;8.90;;;;;;;7.93;41.02;100769.31;5074105;28;20119;-61
2023/12/02 02:39:32;;;;;;;24.38;8.13;;;;;;;7.93;42.07;100777.31;5074826;28;20052;-61
2023/12/02 02:41:58;;;;;;;18.50;8.23;;;;;;;7.91;41.13;100779.25;5073210;28;20033;-62
2023/12/02 02:44:24;;;;;;;20.08;8.25;;;;;;;7.91;41.01;100776.59;5053956;28;20162;-61
2023/12/02 02:46:49;;;;;;;22.40;9.70;;;;;;;7.92;42.05;100784.50;5052676;28;20060;-61
2023/12/02 02:49:14;;;;;;;19.05;8.40;;;;;;;7.91;41.96;100779.25;5051334;28;20068;-61
2023/12/02 02:51:40;;;;;;;18.17;8.25;;;;;;;7.93;41.83;100787.97;5034921;28;20174;-61
2023/12/02 02:54:05;;;;;;;17.05;7.53;;;;;;;7.92;41.52;100786.28;5034619;28;20064;-61
2023/12/02 02:56:31;;;;;;;16.23;8.10;;;;;;;7.93;41.45;100793.31;5052704;28;20053;-61
2023/12/02 02:58:57;;;;;;;16.27;8.40;;;;;;;7.92;41.41;100795.16;5055473;28;20033;-61
2023/12/02 03:01:22;;;;;;;20.40;8.75;;;;;;;7.88;41.10;100792.81;5056566;28;20032;-61
2023/12/02 03:03:48;;;;;;;18.02;8.20;;;;;;;7.88;41.78;100803.47;5056549;28;20116;-62
2023/12/02 03:06:13;;;;;;;19.95;8.35;;;;;;;7.84;41.52;100802.00;5055251;28;20044;-61
2023/12/02 03:08:39;;;;;;;17.40;7.70;;;;;;;7.86;41.28;100805.41;5056546;28;20040;-61
2023/12/02 03:11:05;;;;;;;22.27;8.63;;;;;;;7.85;40.86;100799.22;5054992;28;20416;-61
2023/12/02 03:13:30;;;;;;;18.38;7.90;;;;;;;7.85;41.72;100809.03;5055184;28;20411;-61
2023/12/02 03:15:55;;;;;;;18.13;7.75;;;;;;;7.82;41.41;100809.25;5056469;28;20079;-61
2023/12/02 03:18:21;;;;;;;19.45;8.45;;;;;;;7.83;41.77;100800.28;5056152;28;20052;-62
2023/12/02 03:20:46;;;;;;;16.42;7.30;;;;;;;7.80;40.74;100801.38;5054923;28;20083;-62
2023/12/02 03:23:11;;;;;;;17.63;8.40;;;;;;;7.79;41.71;100805.00;5055109;28;20036;-61
2023/12/02 03:25:37;;;;;;;21.27;8.98;;;;;;;7.80;41.54;100800.53;5054893;28;20043;-62
2023/12/02 03:28:03;;;;;;;23.23;8.20;;;;;;;7.81;40.76;100800.44;5054783;28;20067;-61
2023/12/02 03:30:28;;;;;;;15.55;7.65;;;;;;;7.79;40.91;100794.31;5056107;28;20025;-61
2023/12/02 03:32:54;;;;;;;20.83;8.25;;;;;;;7.77;41.59;100796.25;5055910;28;20508;-61
2023/12/02 03:35:19;;;;;;;15.70;7.95;;;;;;;7.79;41.48;100798.84;5055837;28;20041;-61
2023/12/02 03:37:45;;;;;;;18.05;7.00;;;;;;;7.78;41.13;100803.31;5055906;28;20040;-61
2023/12/02 03:40:11;;;;;;;18.65;7.88;;;;;;;7.78;41.42;100813.13;5056064;28;20037;-61
2023/12/02 03:42:36;;;;;;;17.17;7.75;;;;;;;7.78;41.35;100802.47;5055672;28;20426;-61
2023/12/02 03:45:02;;;;;;;18.35;7.85;;;;;;;7.77;41.13;100795.41;5037988;28;20122;-61
2023/12/02 03:47:28;;;;;;;15.77;6.80;;;;;;;7.77;41.52;100808.75;5055524;28;20044;-61
2023/12/02 03:49:53;;;;;;;17.85;7.63;;;;;;;7.74;42.00;100811.63;5054455;28;20029;-62
2023/12/02 03:52:19;;;;;;;16.60;7.40;;;;;;;7.73;41.00;100815.28;5055767;28;20481;-61
2023/12/02 03:54:44;;;;;;;17.13;7.90;;;;;;;7.72;41.64;100814.41;5054442;28;20589;-61
2023/12/02 03:57:10;;;;;;;15.60;6.93;;;;;;;7.75;41.82;100824.00;5054311;28;20056;-62
2023/12/02 03:59:35;;;;;;;14.77;7.13;;;;;;;7.75;42.48;100826.66;5055481;28;20039;-61
2023/12/02 04:02:01;;;;;;;18.75;7.60;;;;;;;7.75;40.92;100824.00;5054298;28;20527;-61
2023/12/02 04:04:26;;;;;;;18.27;7.53;;;;;;;7.69;41.37;100808.44;5055458;28;20048;-62
2023/12/02 04:06:51;;;;;;;21.35;7.82;;;;;;;7.76;41.38;100826.53;5054098;28;20037;-61
2023/12/02 04:09:17;;;;;;;22.95;8.40;;;;;;;7.74;40.65;100817.81;5053775;28;20078;-64
2023/12/02 04:11:48;;;;;;;18.92;7.72;;;;;;;7.76;41.56;100826.53;5054190;28;20031;-62
2023/12/02 04:14:14;;;;;;;16.75;7.63;;;;;;;7.78;41.40;100826.44;5054237;28;20108;-61
2023/12/02 04:16:43;;;;;;;17.30;7.50;;;;;;;7.75;41.96;100824.00;5054879;28;20104;-61
2023/12/02 04:19:09;;;;;;;17.38;6.57;;;;;;;7.80;41.54;100829.84;5055353;28;20027;-61
2023/12/02 04:21:41;;;;;;;19.45;6.97;;;;;;;7.79;40.74;100833.50;5037171;28;20116;-61
2023/12/02 04:24:07;;;;;;;17.23;7.95;;;;;;;7.81;42.27;100839.56;5054021;28;20047;-61
2023/12/02 04:26:33;;;;;;;16.58;7.25;;;;;;;7.80;41.79;100829.84;5053803;28;20060;-61
2023/12/02 04:28:58;;;;;;;18.35;8.50;;;;;;;7.80;41.66;100840.50;5037126;28;20079;-61
2023/12/02 04:31:23;;;;;;;17.30;7.28;;;;;;;7.80;40.87;100840.50;5024499;28;20037;-61
2023/12/02 04:33:49;;;;;;;17.77;8.00;;;;;;;7.82;40.85;100846.56;5036864;28;20078;-61
2023/12/02 04:36:14;;;;;;;21.27;8.40;;;;;;;7.82;40.90;100846.56;5036565;28;20049;-61
2023/12/02 04:38:40;;;;;;;16.95;7.70;;;;;;;7.82;41.60;100849.25;5048791;28;20358;-61
2023/12/02 04:41:06;;;;;;;18.30;8.02;;;;;;;7.78;41.27;100850.44;5017298;28;20028;-61
2023/12/02 04:43:31;;;;;;;15.57;6.78;;;;;;;7.80;41.61;100854.69;5017846;28;20512;-61
2023/12/02 04:45:57;;;;;;;18.30;7.20;;;;;;;7.83;41.32;100854.47;5035480;28;20110;-62
2023/12/02 04:48:22;;;;;;;17.50;7.20;;;;;;;7.81;41.86;100851.09;5034545;28;20048;-61
2023/12/02 04:50:48;;;;;;;14.10;7.80;;;;;;;7.83;41.08;100848.28;5017273;28;20540;-61
2023/12/02 04:53:13;;;;;;;16.20;8.27;;;;;;;7.85;41.01;100851.69;5016790;28;20049;-61
2023/12/02 04:55:39;;;;;;;20.05;7.72;;;;;;;7.84;41.99;100853.53;5016946;28;20099;-62
2023/12/02 04:58:05;;;;;;;15.85;6.68;;;;;;;7.80;41.47;100854.69;5040787;28;20404;-61
2023/12/02 05:00:30;;;;;;;16.70;7.10;;;;;;;7.83;41.10;100864.28;5054539;28;20091;-61
2023/12/02 05:02:56;;;;;;;16.05;7.05;;;;;;;7.82;40.77;100867.91;5054216;28;20060;-61
2023/12/02 05:05:21;;;;;;;16.05;7.68;;;;;;;7.81;41.71;100876.88;5036305;28;20030;-61
2023/12/02 05:07:47;;;;;;;18.40;8.05;;;;;;;7.80;41.27;100869.84;5036648;28;20049;-61
2023/12/02 05:10:12;;;;;;;18.80;7.13;;;;;;;7.80;41.65;100875.19;5036379;28;20029;-61
2023/12/02 05:12:37;;;;;;;17.80;7.00;;;;;;;7.79;40.70;100884.16;5054097;28;20039;-62
2023/12/02 05:15:09;;;;;;;15.45;7.90;;;;;;;7.77;41.00;100880.72;5036299;28;20032;-61
2023/12/02 05:17:34;;;;;;;17.38;7.53;;;;;;;7.74;41.57;100880.94;5036789;28;20041;-61
2023/12/02 05:19:59;;;;;;;14.15;6.07;;;;;;;7.71;41.32;100887.34;5053445;28;20041;-61
2023/12/02 05:22:25;;;;;;;16.45;7.35;;;;;;;7.69;41.78;100891.09;5035881;28;20454;-61
2023/12/02 05:24:50;;;;;;;16.45;6.93;;;;;;;7.67;40.70;100898.34;5053907;28;20029;-61
2023/12/02 05:27:16;;;;;;;15.20;6.10;;;;;;;7.66;41.62;100904.63;5035942;28;20029;-62
2023/12/02 05:29:41;;;;;;;19.35;7.50;;;;;;;7.62;40.62;100896.84;5035896;28;20495;-61
2023/12/02 05:32:07;;;;;;;16.80;7.45;;;;;;;7.65;41.58;100913.59;5053668;28;20057;-62
2023/12/02 05:34:33;;;;;;;13.60;6.60;;;;;;;7.65;41.14;100905.63;5035939;28;20443;-61
2023/12/02 05:36:59;;;;;;;17.20;7.68;;;;;;;7.66;40.60;100904.63;5035859;28;20033;-61
2023/12/02 05:39:26;;;;;;;16.02;6.47;;;;;;;7.66;40.77;100915.28;5035932;28;20033;-61
2023/12/02 05:41:51;;;;;;;15.05;7.43;;;;;;;7.67;41.82;100911.69;5019634;28;20100;-61
2023/12/02 05:44:17;;;;;;;12.13;6.03;;;;;;;7.65;41.48;100913.59;5053693;28;20058;-61
2023/12/02 05:46:42;;;;;;;16.15;8.20;;;;;;;7.68;41.19;100921.38;5044180;28;20057;-61
2023/12/02 05:49:07;;;;;;;16.98;7.40;;;;;;;7.68;40.65;100911.56;5018936;28;20448;-61
2023/12/02 05:51:38;;;;;;;14.55;7.32;;;;;;;7.68;41.05;100908.06;5019092;28;20108;-61
2023/12/02 05:54:03;;;;;;;18.23;7.50;;;;;;;7.69;41.75;100917.75;5053334;28;20086;-61
2023/12/02 05:56:29;;;;;;;17.10;6.97;;;;;;;7.68;41.53;100913.41;5053011;28;20045;-62
2023/12/02 05:58:54;;;;;;;18.00;7.30;;;;;;;7.69;41.89;100915.94;5053255;28;20033;-61
2023/12/02 06:01:20;;;;;;;14.80;6.25;;;;;;;7.70;41.75;100922.13;5035625;28;20025;-61
2023/12/02 06:03:46;;;;;;;12.77;6.13;;;;;;;7.68;41.06;100919.56;5053330;28;20078;-61
2023/12/02 06:06:11;;;;;;;15.27;7.10;;;;;;;7.71;40.66;100924.66;5035346;28;20032;-61
2023/12/02 06:08:37;;;;;;;17.73;6.13;;;;;;;7.70;41.18;100927.47;5052894;28;20037;-62
2023/12/02 06:11:03;;;;;;;15.95;6.97;;;;;;;7.71;41.41;100924.66;5053116;28;20033;-61
2023/12/02 06:13:29;;;;;;;13.25;5.85;;;;;;;7.70;41.10;100922.13;5052984;28;20412;-61
2023/12/02 06:15:54;;;;;;;16.63;6.90;;;;;;;7.70;40.91;100927.47;5053106;28;20479;-61
2023/12/02 06:18:20;;;;;;;12.93;6.00;;;;;;;7.62;41.61;100920.84;5035195;28;20100;-61
2023/12/02 06:20:45;;;;;;;14.65;6.95;;;;;;;7.70;41.16;100938.13;5052964;28;20037;-61
2023/12/02 06:23:10;;;;;;;15.35;6.95;;;;;;;7.68;41.20;100934.72;5052807;28;20112;-61
2023/12/02 06:25:36;;;;;;;10.75;5.30;;;;;;;7.67;40.70;100927.66;5035112;28;20400;-61
2023/12/02 06:28:02;;;;;;;13.20;6.47;;;;;;;7.66;40.58;100940.13;5018697;28;20033;-61
2023/12/02 06:30:27;;;;;;;15.90;6.30;;;;;;;7.65;40.98;100950.94;5034966;28;20496;-62
2023/12/02 06:32:53;;;;;;;14.80;7.07;;;;;;;7.63;41.56;100948.34;5052808;28;20037;-61
2023/12/02 06:35:19;;;;;;;17.60;6.90;;;;;;;7.66;41.21;100942.81;5052195;28;20044;-61
2023/12/02 06:37:45;;;;;;;11.90;6.05;;;;;;;7.63;40.80;100941.22;5052972;28;20040;-61
2023/12/02 06:40:10;;;;;;;14.30;6.68;;;;;;;7.63;41.07;100949.22;5052973;28;20037;-61
2023/12/02 06:42:36;;;;;;;12.60;6.00;;;;;;;7.63;41.29;100949.22;5035815;28;20025;-61
2023/12/02 06:45:01;;;;;;;14.98;7.82;;;;;;;7.60;41.36;100946.75;5035679;28;20030;-61
2023/12/02 06:47:26;;;;;;;14.90;6.75;;;;;;;7.62;41.55;100958.16;5053317;28;20040;-62
2023/12/02 06:49:52;;;;;;;17.85;7.57;;;;;;;7.61;41.91;100956.47;5035173;28;20048;-61
2023/12/02 06:52:17;;;;;;;15.25;6.45;;;;;;;7.60;41.64;100960.09;5053050;28;20029;-61
2023/12/02 06:54:43;;;;;;;16.02;6.75;;;;;;;7.58;41.49;100967.34;5053367;28;20114;-61
2023/12/02 06:57:08;;;;;;;15.23;6.25;;;;;;;7.56;40.90;100977.28;5036373;28;20048;-61
2023/12/02 06:59:34;;;;;;;12.95;6.47;;;;;;;7.54;41.92;100976.50;5037517;28;20039;-62
2023/12/02 07:01:59;;;;;;;13.48;6.50;;;;;;;7.51;40.96;100990.03;5037622;28;20508;-62
2023/12/02 07:04:24;;;;;;;13.90;7.03;;;;;;;7.49;41.02;100993.75;5036503;28;20040;-61
2023/12/02 07:06:50;;;;;;;14.27;6.60;;;;;;;7.48;40.95;101000.91;5038797;28;20558;-61
2023/12/02 07:09:15;;;;;;;17.05;7.15;;;;;;;7.45;41.09;101011.78;5022962;28;20033;-61
2023/12/02 07:11:41;;;;;;;15.85;7.68;;;;;;;7.45;41.02;101005.63;5039756;28;20025;-61
2023/12/02 07:14:06;;;;;;;14.73;6.68;;;;;;;7.40;41.73;101002.38;5056699;28;20080;-61
2023/12/02 07:16:32;;;;;;;15.65;6.97;;;;;;;7.39;41.49;101017.53;5037725;28;20036;-61
2023/12/02 07:18:57;;;;;;;15.75;6.75;;;;;;;7.35;41.40;101018.69;5055870;28;20084;-61
2023/12/02 07:21:23;;;;;;;18.05;7.13;;;;;;;7.30;40.76;101027.97;5054251;28;20518;-61
2023/12/02 07:23:48;;;;;;;14.35;6.50;;;;;;;7.29;41.10;101032.41;5018025;28;20033;-61
2023/12/02 07:26:14;;;;;;;16.80;6.57;;;;;;;7.27;41.76;101028.16;5034566;28;20051;-61
2023/12/02 07:28:40;;;;;;;17.83;7.10;;;;;;;7.26;41.02;101035.28;5018163;28;20053;-61
2023/12/02 07:31:06;;;;;;;13.52;5.45;;;;;;;7.27;41.73;101037.00;5034574;28;20056;-61
2023/12/02 07:33:31;;;;;;;18.58;7.30;;;;;;;7.28;40.98;101043.19;5034159;28;20060;-61
2023/12/02 07:35:56;;;;;;;14.85;6.05;;;;;;;7.28;41.00;101044.06;5034435;28;20040;-61
2023/12/02 07:38:22;;;;;;;19.30;7.13;;;;;;;7.29;41.28;101040.41;5034340;28;20033;-61
2023/12/02 07:40:47;;;;;;;20.67;7.70;;;;;;;7.29;40.88;101039.56;5052057;28;20112;-61
2023/12/02 07:43:13;;;;;;;14.23;6.88;;;;;;;7.29;42.16;101043.09;5037062;28;20033;-61
2023/12/02 07:45:38;;;;;;;14.25;6.28;;;;;;;7.29;41.42;101044.88;5021452;28;20455;-61
2023/12/02 07:48:04;;;;;;;18.58;8.10;;;;;;;7.30;41.83;101036.81;5072902;28;20039;-61
2023/12/02 07:50:30;;;;;;;18.05;7.72;;;;;;;7.29;42.23;101047.56;5075833;28;20037;-61
2023/12/02 07:52:55;;;;;;;18.30;6.53;;;;;;;7.27;41.26;101053.00;5075683;28;20107;-61
2023/12/02 07:55:20;;;;;;;20.20;8.80;;;;;;;7.24;41.50;101047.00;5075771;28;20029;-61
2023/12/02 07:57:46;;;;;;;14.52;6.15;;;;;;;7.31;41.56;101057.19;5075197;28;20059;-61
2023/12/02 08:00:12;;;;;;;17.10;7.10;;;;;;;7.31;41.89;101056.31;5041303;28;20532;-61
2023/12/02 08:02:39;;;;;;;15.23;7.10;;;;;;;7.32;41.65;101061.53;5075447;28;20044;-61
2023/12/02 08:05:05;;;;;;;12.70;6.00;;;;;;;7.34;41.89;101064.94;5057690;28;20055;-61
2023/12/02 08:07:30;;;;;;;19.60;7.20;;;;;;;7.35;41.69;101065.78;5075096;28;20536;-61
2023/12/02 08:09:55;;;;;;;18.20;7.47;;;;;;;7.38;41.93;101069.13;5075126;28;20036;-61
2023/12/02 08:12:21;;;;;;;18.05;7.68;;;;;;;7.39;40.88;101068.16;5075592;28;20033;-61
2023/12/02 08:14:46;;;;;;;17.95;8.30;;;;;;;7.42;41.25;101061.78;5057394;28;20442;-61
2023/12/02 08:17:11;;;;;;;16.60;7.60;;;;;;;7.43;41.07;101069.66;5056987;28;20115;-61
2023/12/02 08:19:37;;;;;;;16.52;6.53;;;;;;;7.44;41.88;101070.50;5057150;28;20040;-62
2023/12/02 08:22:02;;;;;;;18.80;7.20;;;;;;;7.45;41.46;101062.41;5057284;28;20029;-61
2023/12/02 08:24:28;;;;;;;20.35;7.85;;;;;;;7.44;41.20;101066.03;5040354;28;20036;-61
2023/12/02 08:26:53;;;;;;;14.68;7.32;;;;;;;7.46;41.14;101064.13;5057224;28;20037;-62
2023/12/02 08:29:18;;;;;;;17.65;7.35;;;;;;;7.52;40.68;101078.84;5040335;28;20497;-61
2023/12/02 08:31:44;;;;;;;13.15;6.28;;;;;;;7.54;41.16;101083.09;5040474;28;20041;-61
2023/12/02 08:34:09;;;;;;;15.43;7.90;;;;;;;7.54;41.16;101080.44;5075031;28;20055;-61
2023/12/02 08:36:35;;;;;;;17.10;6.80;;;;;;;7.61;41.94;101089.75;5030511;28;20087;-61
2023/12/02 08:39:02;;;;;;;14.88;7.32;;;;;;;7.64;41.28;101083.34;5020431;28;20108;-61
2023/12/02 08:41:27;;;;;;;18.98;7.68;;;;;;;7.69;41.40;101086.56;5034657;28;20030;-61
2023/12/02 08:43:53;;;;;;;18.67;7.07;;;;;;;7.71;41.60;101091.75;5025720;28;20048;-61
2023/12/02 08:46:19;;;;;;;15.05;6.53;;;;;;;7.74;40.95;101076.41;5034714;28;20040;-61
2023/12/02 08:48:45;;;;;;;18.67;7.50;;;;;;;7.81;41.96;101082.19;5037169;28;20078;-61
2023/12/02 08:51:11;;;;;;;19.40;7.43;;;;;;;7.88;41.60;101096.81;5040812;28;20125;-61
2023/12/02 08:53:36;;;;;;;15.25;8.60;;;;;;;7.93;41.31;101094.66;5016038;28;20164;-61
2023/12/02 08:56:02;;;;;;;19.50;6.53;;;;;;;8.01;41.38;101100.34;5033071;28;20068;-62
2023/12/02 08:58:27;;;;;;;15.70;6.72;;;;;;;8.04;41.17;101102.81;5026285;28;20033;-61
2023/12/02 09:00:52;;;;;;;12.25;5.53;;;;;;;8.11;41.13;101114.75;5035815;28;20042;-61
2023/12/02 09:03:18;;;;;;;16.58;6.60;;;;;;;8.16;41.87;101117.94;5034201;28;20140;-61
2023/12/02 09:05:43;;;;;;;17.48;6.75;;;;;;;8.23;41.02;101124.56;5000396;28;20512;-61
2023/12/02 09:08:09;;;;;;;22.65;7.72;;;;;;;8.23;40.75;101111.22;5000358;28;20048;-61
2023/12/02 09:10:34;;;;;;;16.15;7.28;;;;;;;8.29;41.16;101123.31;5039179;28;20064;-61
2023/12/02 09:12:59;;;;;;;18.45;8.10;;;;;;;8.30;40.70;101127.69;5019844;28;20037;-62
2023/12/02 09:15:38;;;;;;;20.10;7.50;;;;;;;8.36;41.67;101141.47;5036397;28;20102;-60
2023/12/02 09:18:13;;;;;;;17.45;6.93;;;;;;;8.43;41.65;101132.03;5036479;28;20163;-61
2023/12/02 09:20:49;;;;;;;16.42;6.68;;;;;;;8.47;41.39;101136.22;5036257;28;20033;-61
2023/12/02 09:47:19;;;;;;;17.63;8.13;;;;;;;10.26;40.21;101145.06;6079684;22;21183;-60
2023/12/02 09:50:06;;;;;;;20.05;7.53;;;;;;;10.22;40.25;101145.41;5073461;28;20034;-60
2023/12/02 09:52:47;;;;;;;14.73;6.93;;;;;;;10.26;40.51;101150.44;5054986;28;20043;-65
2023/12/02 09:55:34;;;;;;;15.90;7.30;;;;;;;10.77;39.42;101158.88;5055525;28;20032;-60
2023/12/02 09:58:17;;;;;;;16.48;6.70;;;;;;;11.08;39.63;101152.72;5055440;28;20053;-62
2023/12/02 10:00:57;;;;;;;15.73;6.55;;;;;;;11.17;39.41;101148.44;5055043;28;20113;-60
2023/12/02 10:04:02;;;;;;;16.52;6.97;;;;;;;11.54;38.62;101148.94;5052327;28;20029;-60
2023/12/02 10:07:05;;;;;;;16.92;7.72;;;;;;;11.54;39.48;101151.63;4975140;28;20042;-60
2023/12/02 10:10:09;;;;;;;16.67;7.65;;;;;;;11.85;38.59;101148.13;4975212;28;20050;-60
2023/12/02 10:12:53;;;;;;;14.70;7.28;;;;;;;12.36;38.12;101141.97;4979562;28;20089;-60
2023/12/02 10:15:19;;;;;;;16.90;8.05;;;;;;;12.68;38.05;101138.16;4975408;28;20045;-61
2023/12/02 10:18:04;;;;;;;19.98;9.07;;;;;;;12.92;38.86;101129.78;4975559;28;20097;-60
2023/12/02 10:20:34;;;;;;;17.70;8.32;;;;;;;13.15;38.52;101136.63;4959300;28;20031;-61
2023/12/02 10:23:31;;;;;;;19.95;8.98;;;;;;;13.35;38.48;101130.31;4959320;28;20038;-60
2023/12/02 10:26:06;;;;;;;18.13;8.07;;;;;;;13.58;37.41;101135.44;4975299;28;20565;-61
2023/12/02 10:28:37;;;;;;;20.02;8.23;;;;;;;13.77;37.70;101140.81;4991444;28;20057;-61
2023/12/02 10:31:05;;;;;;;19.55;9.05;;;;;;;13.95;37.47;101141.81;4975295;28;20065;-61
2023/12/02 10:33:47;;;;;;;20.67;8.48;;;;;;;14.09;36.40;101137.81;4975560;28;20043;-60
2023/12/02 10:36:12;;;;;;;20.58;9.02;;;;;;;14.20;36.48;101135.81;4991169;28;20049;-61
2023/12/02 10:38:54;;;;;;;17.40;8.50;;;;;;;14.30;36.71;101133.94;4975227;28;20018;-61
2023/12/02 10:41:28;;;;;;;21.02;9.00;;;;;;;14.36;36.67;101128.00;5062160;28;20033;-61
2023/12/02 10:44:02;;;;;;;19.83;9.40;;;;;;;14.44;36.19;101113.78;5038277;28;20503;-61
2023/12/02 10:46:29;;;;;;;18.50;9.05;;;;;;;14.57;36.02;101127.81;5038093;28;20467;-61
2023/12/02 10:48:57;;;;;;;16.75;8.52;;;;;;;14.65;36.80;101125.22;5039175;28;20049;-60
2023/12/02 10:51:23;;;;;;;17.02;7.93;;;;;;;14.78;35.57;101124.88;5018689;28;20040;-61
2023/12/02 10:53:50;;;;;;;16.77;7.93;;;;;;;14.87;37.17;101129.38;5018450;28;20036;-61
2023/12/02 10:56:21;;;;;;;15.40;8.10;;;;;;;14.95;36.52;101126.78;5035391;28;20071;-61
2023/12/02 10:58:49;;;;;;;17.75;7.95;;;;;;;14.99;36.93;101122.78;5034797;28;20033;-61
2023/12/02 11:01:18;;;;;;;18.25;9.38;;;;;;;15.04;35.06;101121.34;5002076;28;20560;-60
2023/12/02 11:04:10;;;;;;;18.10;8.13;;;;;;;15.08;35.14;101129.94;5034775;28;20437;-61
2023/12/02 11:06:37;;;;;;;19.15;8.52;;;;;;;15.10;36.56;101125.28;5018435;28;20029;-60
2023/12/02 11:09:05;;;;;;;15.30;7.88;;;;;;;15.11;36.40;101122.41;5052538;28;20057;-61
2023/12/02 11:12:03;;;;;;;18.73;8.43;;;;;;;15.16;35.41;101130.03;5053241;28;20040;-61
2023/12/02 11:14:36;;;;;;;15.85;8.27;;;;;;;15.17;36.02;101131.75;5036397;28;20033;-61
2023/12/02 11:17:26;;;;;;;17.77;8.63;;;;;;;15.21;34.94;101138.56;5037008;28;20163;-61
2023/12/02 11:20:08;;;;;;;16.60;8.13;;;;;;;15.21;35.04;101133.16;5056184;28;20087;-61
2023/12/02 11:22:50;;;;;;;18.35;8.80;;;;;;;15.23;36.14;101136.56;5038434;28;20044;-61
2023/12/02 11:25:24;;;;;;;17.02;8.07;;;;;;;15.24;34.90;101135.56;5038558;28;20522;-61
2023/12/02 11:28:05;;;;;;;20.23;8.75;;;;;;;15.26;34.86;101140.78;5056217;28;20067;-61
2023/12/02 11:30:47;;;;;;;17.90;8.18;;;;;;;15.24;34.73;101132.88;5039037;28;20185;-60
2023/12/02 11:33:21;;;;;;;17.25;7.82;;;;;;;15.24;35.05;101138.25;5038194;28;20083;-60
2023/12/02 11:36:00;;;;;;;17.58;8.15;;;;;;;15.24;34.88;101132.88;5038308;28;20041;-61
2023/12/02 11:38:28;;;;;;;21.95;9.38;;;;;;;15.24;34.52;101135.56;5021807;28;20496;-61
2023/12/02 11:41:25;;;;;;;16.70;8.10;;;;;;;15.25;34.12;101141.78;5038315;28;20060;-61
2023/12/02 11:44:11;;;;;;;17.65;8.40;;;;;;;15.19;34.66;101145.94;5021361;28;20531;-60
2023/12/02 11:47:07;;;;;;;18.55;8.48;;;;;;;15.14;34.68;101145.53;5037754;28;20033;-61
2023/12/02 11:49:46;;;;;;;15.07;7.45;;;;;;;15.09;35.24;101153.25;5034467;28;20032;-61
2023/12/02 11:52:44;;;;;;;18.35;8.02;;;;;;;15.04;35.40;101153.72;5042423;28;20031;-59